Archival Weather

Teniente Col Carmelo Peralta

Teniente Col Carmelo Peralta, Paraguay (SGCO)

Report from: Wednesday, December 6, 2023 6:00 PM -03
Current time: Tuesday, April 23, 2024 3:56 AM -04

Current weather – Weather history – Daily summaries
Weather forecast

Present weatherThunderstorm
Temperature26.0°C (78.8°F)
Dew point25.0°C (77.0°F)
Winds 12 kts (6.2 m/s, 13.8 mph) East (100°)
Visibility6.2 mi. (10 km)
Clouds Few clouds with cumulonimbus 4,000 ft. (1,219 m)
Ceiling: Broken clouds 7,000 ft. (2,134 m)
Altimeter29.77 in.Hg (1008 mB)
Relative humidity94 %
Density altitude1,871 ft. (570 m)
Flight conditions Visual Meteorological Conditions
Raw dataSGCO 062100Z 10012KT 9999 TS FEW040CB BKN070 26/25 Q1008
An error has occurred. This application may no longer respond until reloaded. Reload 🗙